sensor_id;sensor_type;location;lat;lon;timestamp;pressure;altitude;pressure_sealevel;temperature;humidity
63970;BME280;50156;37.772;-122.432;2022-08-23T00:02:09;101142.44;;;22.72;100.00
63970;BME280;50156;37.772;-122.432;2022-08-23T00:04:40;101142.21;;;22.71;100.00
63970;BME280;50156;37.772;-122.432;2022-08-23T00:07:11;101134.96;;;22.57;100.00
63970;BME280;50156;37.772;-122.432;2022-08-23T00:09:41;101135.77;;;22.60;100.00
63970;BME280;50156;37.772;-122.432;2022-08-23T00:12:14;101129.00;;;22.58;100.00
63970;BME280;50156;37.772;-122.432;2022-08-23T00:14:46;101113.26;;;22.34;100.00
63970;BME280;50156;37.772;-122.432;2022-08-23T00:17:16;101114.46;;;22.61;100.00
63970;BME280;50156;37.772;-122.432;2022-08-23T00:19:45;101111.74;;;22.24;100.00
63970;BME280;50156;37.772;-122.432;2022-08-23T00:22:14;101100.13;;;22.21;100.00
63970;BME280;50156;37.772;-122.432;2022-08-23T00:24:42;101101.18;;;22.47;100.00
63970;BME280;50156;37.772;-122.432;2022-08-23T00:27:13;101099.86;;;22.25;100.00
63970;BME280;50156;37.772;-122.432;2022-08-23T00:29:44;101092.08;;;22.26;100.00
63970;BME280;50156;37.772;-122.432;2022-08-23T00:32:15;101099.63;;;22.21;100.00
63970;BME280;50156;37.772;-122.432;2022-08-23T00:34:44;101100.25;;;22.10;100.00
63970;BME280;50156;37.772;-122.432;2022-08-23T00:37:13;101099.81;;;21.85;100.00
63970;BME280;50156;37.772;-122.432;2022-08-23T00:39:42;101090.87;;;21.83;100.00
63970;BME280;50156;37.772;-122.432;2022-08-23T00:42:23;101091.15;;;21.45;100.00
63970;BME280;50156;37.772;-122.432;2022-08-23T00:44:53;101082.81;;;21.45;100.00
63970;BME280;50156;37.772;-122.432;2022-08-23T00:47:23;101081.14;;;21.13;100.00
63970;BME280;50156;37.772;-122.432;2022-08-23T00:49:56;101074.00;;;21.21;100.00
63970;BME280;50156;37.772;-122.432;2022-08-23T00:52:32;101068.97;;;21.08;100.00
63970;BME280;50156;37.772;-122.432;2022-08-23T00:55:02;101076.59;;;21.28;100.00
63970;BME280;50156;37.772;-122.432;2022-08-23T00:57:30;101070.98;;;21.01;100.00
63970;BME280;50156;37.772;-122.432;2022-08-23T01:00:00;101076.79;;;20.97;100.00
63970;BME280;50156;37.772;-122.432;2022-08-23T01:02:28;101072.34;;;20.70;100.00
63970;BME280;50156;37.772;-122.432;2022-08-23T01:04:59;101079.17;;;20.80;100.00
63970;BME280;50156;37.772;-122.432;2022-08-23T01:07:40;101080.23;;;20.80;100.00
63970;BME280;50156;37.772;-122.432;2022-08-23T01:10:18;101076.09;;;21.11;100.00
63970;BME280;50156;37.772;-122.432;2022-08-23T01:12:53;101078.86;;;20.74;100.00
63970;BME280;50156;37.772;-122.432;2022-08-23T01:15:26;101075.59;;;20.91;100.00
63970;BME280;50156;37.772;-122.432;2022-08-23T01:17:59;101070.31;;;20.54;100.00
63970;BME280;50156;37.772;-122.432;2022-08-23T01:20:40;101070.16;;;20.71;100.00
63970;BME280;50156;37.772;-122.432;2022-08-23T01:23:21;101067.02;;;20.93;100.00
63970;BME280;50156;37.772;-122.432;2022-08-23T01:25:52;101072.59;;;20.98;100.00
63970;BME280;50156;37.772;-122.432;2022-08-23T01:28:21;101068.07;;;20.78;100.00
63970;BME280;50156;37.772;-122.432;2022-08-23T01:30:50;101071.73;;;20.32;100.00
63970;BME280;50156;37.772;-122.432;2022-08-23T01:33:19;101067.97;;;20.58;100.00
63970;BME280;50156;37.772;-122.432;2022-08-23T01:35:52;101065.73;;;20.47;100.00
63970;BME280;50156;37.772;-122.432;2022-08-23T01:38:21;101060.56;;;20.16;100.00
63970;BME280;50156;37.772;-122.432;2022-08-23T01:40:51;101052.22;;;20.51;100.00
63970;BME280;50156;37.772;-122.432;2022-08-23T01:43:20;101044.96;;;20.18;100.00
63970;BME280;50156;37.772;-122.432;2022-08-23T01:45:50;101036.59;;;20.04;100.00
63970;BME280;50156;37.772;-122.432;2022-08-23T01:48:20;101030.66;;;19.75;100.00
63970;BME280;50156;37.772;-122.432;2022-08-23T01:50:49;101027.10;;;19.76;100.00
63970;BME280;50156;37.772;-122.432;2022-08-23T01:53:18;101023.60;;;19.59;100.00
63970;BME280;50156;37.772;-122.432;2022-08-23T01:55:47;101019.51;;;19.29;100.00
63970;BME280;50156;37.772;-122.432;2022-08-23T01:58:15;101020.24;;;19.52;100.00
63970;BME280;50156;37.772;-122.432;2022-08-23T02:00:44;101010.97;;;19.17;100.00
63970;BME280;50156;37.772;-122.432;2022-08-23T02:03:13;101009.96;;;19.10;100.00
63970;BME280;50156;37.772;-122.432;2022-08-23T02:05:42;101006.48;;;19.15;100.00
63970;BME280;50156;37.772;-122.432;2022-08-23T02:08:11;101005.56;;;19.23;100.00
63970;BME280;50156;37.772;-122.432;2022-08-23T02:10:40;101008.99;;;19.09;100.00
63970;BME280;50156;37.772;-122.432;2022-08-23T02:13:08;101003.70;;;19.07;100.00
63970;BME280;50156;37.772;-122.432;2022-08-23T02:15:37;101002.16;;;18.91;100.00
63970;BME280;50156;37.772;-122.432;2022-08-23T02:18:05;101003.30;;;18.67;100.00
63970;BME280;50156;37.772;-122.432;2022-08-23T02:20:34;101001.93;;;18.46;100.00
63970;BME280;50156;37.772;-122.432;2022-08-23T02:23:03;100993.50;;;18.03;100.00
63970;BME280;50156;37.772;-122.432;2022-08-23T02:25:31;100990.04;;;17.92;100.00
63970;BME280;50156;37.772;-122.432;2022-08-23T02:28:00;100998.60;;;17.70;100.00
63970;BME280;50156;37.772;-122.432;2022-08-23T02:30:29;101009.13;;;17.56;100.00
63970;BME280;50156;37.772;-122.432;2022-08-23T02:32:58;101011.44;;;17.54;100.00
63970;BME280;50156;37.772;-122.432;2022-08-23T02:35:27;101015.11;;;17.54;100.00
63970;BME280;50156;37.772;-122.432;2022-08-23T02:37:55;101017.43;;;17.50;100.00
63970;BME280;50156;37.772;-122.432;2022-08-23T02:40:24;101029.80;;;17.37;100.00
63970;BME280;50156;37.772;-122.432;2022-08-23T02:42:53;101029.07;;;17.55;100.00
63970;BME280;50156;37.772;-122.432;2022-08-23T02:45:21;101028.80;;;17.43;100.00
63970;BME280;50156;37.772;-122.432;2022-08-23T02:47:49;101029.22;;;17.34;100.00
63970;BME280;50156;37.772;-122.432;2022-08-23T02:50:17;101030.27;;;17.46;100.00
63970;BME280;50156;37.772;-122.432;2022-08-23T02:52:46;101027.56;;;17.38;100.00
63970;BME280;50156;37.772;-122.432;2022-08-23T02:55:15;101028.12;;;17.53;100.00
63970;BME280;50156;37.772;-122.432;2022-08-23T02:57:44;101026.29;;;17.29;100.00
63970;BME280;50156;37.772;-122.432;2022-08-23T03:00:15;101034.06;;;17.23;100.00
63970;BME280;50156;37.772;-122.432;2022-08-23T03:02:44;101037.66;;;17.23;100.00
63970;BME280;50156;37.772;-122.432;2022-08-23T03:05:14;101044.51;;;17.13;100.00
63970;BME280;50156;37.772;-122.432;2022-08-23T03:07:43;101053.35;;;17.07;100.00
63970;BME280;50156;37.772;-122.432;2022-08-23T03:10:13;101053.87;;;17.16;100.00
63970;BME280;50156;37.772;-122.432;2022-08-23T03:12:42;101055.20;;;17.06;100.00
63970;BME280;50156;37.772;-122.432;2022-08-23T03:15:11;101054.78;;;17.09;100.00
63970;BME280;50156;37.772;-122.432;2022-08-23T03:17:40;101055.62;;;16.98;100.00
63970;BME280;50156;37.772;-122.432;2022-08-23T03:20:10;101059.98;;;16.90;100.00
63970;BME280;50156;37.772;-122.432;2022-08-23T03:22:38;101063.93;;;16.84;100.00
63970;BME280;50156;37.772;-122.432;2022-08-23T03:25:07;101058.12;;;16.92;100.00
63970;BME280;50156;37.772;-122.432;2022-08-23T03:27:37;101068.97;;;16.84;100.00
63970;BME280;50156;37.772;-122.432;2022-08-23T03:30:06;101077.58;;;16.83;100.00
63970;BME280;50156;37.772;-122.432;2022-08-23T03:32:35;101075.27;;;16.71;100.00
63970;BME280;50156;37.772;-122.432;2022-08-23T03:35:04;101073.38;;;16.75;100.00
63970;BME280;50156;37.772;-122.432;2022-08-23T03:37:33;101072.99;;;16.68;100.00
63970;BME280;50156;37.772;-122.432;2022-08-23T03:40:01;101073.87;;;16.71;100.00
63970;BME280;50156;37.772;-122.432;2022-08-23T03:42:30;101080.76;;;16.67;100.00
63970;BME280;50156;37.772;-122.432;2022-08-23T03:44:58;101078.32;;;16.65;100.00
63970;BME280;50156;37.772;-122.432;2022-08-23T03:47:26;101080.61;;;16.56;100.00
63970;BME280;50156;37.772;-122.432;2022-08-23T03:49:55;101078.50;;;16.55;100.00
63970;BME280;50156;37.772;-122.432;2022-08-23T03:52:24;101078.63;;;16.47;100.00
63970;BME280;50156;37.772;-122.432;2022-08-23T03:54:53;101076.59;;;16.41;100.00
63970;BME280;50156;37.772;-122.432;2022-08-23T03:57:22;101082.01;;;16.42;100.00
63970;BME280;50156;37.772;-122.432;2022-08-23T03:59:50;101081.45;;;16.43;100.00
63970;BME280;50156;37.772;-122.432;2022-08-23T04:02:19;101083.63;;;16.35;100.00
63970;BME280;50156;37.772;-122.432;2022-08-23T04:04:47;101084.64;;;16.35;100.00
63970;BME280;50156;37.772;-122.432;2022-08-23T04:07:18;101084.97;;;16.29;100.00
63970;BME280;50156;37.772;-122.432;2022-08-23T04:09:47;101085.44;;;16.28;100.00
63970;BME280;50156;37.772;-122.432;2022-08-23T04:12:16;101086.08;;;16.23;100.00
63970;BME280;50156;37.772;-122.432;2022-08-23T04:14:45;101086.58;;;16.25;100.00
63970;BME280;50156;37.772;-122.432;2022-08-23T04:17:15;101090.52;;;16.19;100.00
63970;BME280;50156;37.772;-122.432;2022-08-23T04:19:43;101092.53;;;16.20;100.00
63970;BME280;50156;37.772;-122.432;2022-08-23T04:22:14;101097.54;;;16.18;100.00
63970;BME280;50156;37.772;-122.432;2022-08-23T04:24:43;101101.40;;;16.16;100.00
63970;BME280;50156;37.772;-122.432;2022-08-23T04:27:12;101108.43;;;16.20;100.00
63970;BME280;50156;37.772;-122.432;2022-08-23T04:29:42;101107.88;;;16.18;100.00
63970;BME280;50156;37.772;-122.432;2022-08-23T04:32:11;101111.60;;;16.14;100.00
63970;BME280;50156;37.772;-122.432;2022-08-23T04:34:40;101112.58;;;16.15;100.00
63970;BME280;50156;37.772;-122.432;2022-08-23T04:37:09;101116.78;;;16.19;100.00
63970;BME280;50156;37.772;-122.432;2022-08-23T04:39:38;101116.55;;;16.21;100.00
63970;BME280;50156;37.772;-122.432;2022-08-23T04:42:08;101119.84;;;16.23;100.00
63970;BME280;50156;37.772;-122.432;2022-08-23T04:44:36;101127.15;;;16.21;100.00
63970;BME280;50156;37.772;-122.432;2022-08-23T04:47:05;101122.30;;;16.16;100.00
63970;BME280;50156;37.772;-122.432;2022-08-23T04:49:33;101122.54;;;16.22;100.00
63970;BME280;50156;37.772;-122.432;2022-08-23T04:52:02;101124.23;;;16.19;100.00
63970;BME280;50156;37.772;-122.432;2022-08-23T04:54:31;101123.64;;;16.20;100.00
63970;BME280;50156;37.772;-122.432;2022-08-23T04:57:00;101119.53;;;16.13;100.00
63970;BME280;50156;37.772;-122.432;2022-08-23T04:59:28;101119.35;;;16.17;100.00
63970;BME280;50156;37.772;-122.432;2022-08-23T05:01:57;101120.80;;;16.20;100.00
63970;BME280;50156;37.772;-122.432;2022-08-23T05:04:26;101120.16;;;16.08;100.00
63970;BME280;50156;37.772;-122.432;2022-08-23T05:06:54;101117.95;;;16.07;100.00
63970;BME280;50156;37.772;-122.432;2022-08-23T05:09:23;101113.50;;;15.94;100.00
63970;BME280;50156;37.772;-122.432;2022-08-23T05:11:51;101111.38;;;15.89;100.00
63970;BME280;50156;37.772;-122.432;2022-08-23T05:14:20;101112.38;;;15.87;100.00
63970;BME280;50156;37.772;-122.432;2022-08-23T05:16:48;101100.16;;;15.72;100.00
63970;BME280;50156;37.772;-122.432;2022-08-23T05:19:17;101097.66;;;15.76;100.00
63970;BME280;50156;37.772;-122.432;2022-08-23T05:21:45;101095.11;;;15.68;100.00
63970;BME280;50156;37.772;-122.432;2022-08-23T05:24:14;101090.98;;;15.66;100.00
63970;BME280;50156;37.772;-122.432;2022-08-23T05:26:43;101092.67;;;15.71;100.00
63970;BME280;50156;37.772;-122.432;2022-08-23T05:29:12;101087.33;;;15.62;100.00
63970;BME280;50156;37.772;-122.432;2022-08-23T05:31:40;101090.75;;;15.57;100.00
63970;BME280;50156;37.772;-122.432;2022-08-23T05:34:09;101094.54;;;15.47;100.00
63970;BME280;50156;37.772;-122.432;2022-08-23T05:36:39;101088.35;;;15.45;100.00
63970;BME280;50156;37.772;-122.432;2022-08-23T05:39:08;101089.84;;;15.47;100.00
63970;BME280;50156;37.772;-122.432;2022-08-23T05:41:37;101082.64;;;15.52;100.00
63970;BME280;50156;37.772;-122.432;2022-08-23T05:44:05;101080.67;;;15.45;100.00
63970;BME280;50156;37.772;-122.432;2022-08-23T05:46:34;101085.20;;;15.40;100.00
63970;BME280;50156;37.772;-122.432;2022-08-23T05:49:04;101089.28;;;15.40;100.00
63970;BME280;50156;37.772;-122.432;2022-08-23T05:51:34;101102.07;;;15.38;100.00
63970;BME280;50156;37.772;-122.432;2022-08-23T05:54:05;101103.19;;;15.50;100.00
63970;BME280;50156;37.772;-122.432;2022-08-23T05:56:36;101102.90;;;15.51;100.00
63970;BME280;50156;37.772;-122.432;2022-08-23T05:59:08;101103.03;;;15.50;100.00
63970;BME280;50156;37.772;-122.432;2022-08-23T06:01:38;101106.38;;;15.57;100.00
63970;BME280;50156;37.772;-122.432;2022-08-23T06:04:09;101102.76;;;15.57;100.00
63970;BME280;50156;37.772;-122.432;2022-08-23T06:06:40;101108.99;;;15.62;100.00
63970;BME280;50156;37.772;-122.432;2022-08-23T06:09:13;101100.35;;;15.56;100.00
63970;BME280;50156;37.772;-122.432;2022-08-23T06:11:43;101096.14;;;15.56;100.00
63970;BME280;50156;37.772;-122.432;2022-08-23T06:14:13;101086.77;;;15.55;100.00
63970;BME280;50156;37.772;-122.432;2022-08-23T06:16:44;101089.62;;;15.61;100.00
63970;BME280;50156;37.772;-122.432;2022-08-23T06:19:13;101087.15;;;15.58;100.00
63970;BME280;50156;37.772;-122.432;2022-08-23T06:21:42;101087.22;;;15.55;100.00
63970;BME280;50156;37.772;-122.432;2022-08-23T06:24:11;101083.68;;;15.55;100.00
63970;BME280;50156;37.772;-122.432;2022-08-23T06:26:42;101086.18;;;15.66;100.00
63970;BME280;50156;37.772;-122.432;2022-08-23T06:29:13;101087.86;;;15.74;100.00
63970;BME280;50156;37.772;-122.432;2022-08-23T06:31:45;101082.59;;;15.66;100.00
63970;BME280;50156;37.772;-122.432;2022-08-23T06:34:16;101084.08;;;15.73;100.00
63970;BME280;50156;37.772;-122.432;2022-08-23T06:36:47;101080.90;;;15.71;100.00
63970;BME280;50156;37.772;-122.432;2022-08-23T06:39:17;101078.45;;;15.71;100.00
63970;BME280;50156;37.772;-122.432;2022-08-23T06:41:46;101071.01;;;15.67;100.00
63970;BME280;50156;37.772;-122.432;2022-08-23T06:44:16;101068.63;;;15.72;100.00
63970;BME280;50156;37.772;-122.432;2022-08-23T06:46:45;101060.53;;;15.75;100.00
63970;BME280;50156;37.772;-122.432;2022-08-23T06:49:14;101056.00;;;15.79;100.00
63970;BME280;50156;37.772;-122.432;2022-08-23T06:51:45;101051.90;;;15.82;100.00
63970;BME280;50156;37.772;-122.432;2022-08-23T06:54:17;101045.87;;;15.75;100.00
63970;BME280;50156;37.772;-122.432;2022-08-23T06:56:46;101045.80;;;15.76;100.00
63970;BME280;50156;37.772;-122.432;2022-08-23T06:59:16;101049.03;;;15.75;100.00
63970;BME280;50156;37.772;-122.432;2022-08-23T07:01:47;101047.09;;;15.75;100.00
63970;BME280;50156;37.772;-122.432;2022-08-23T07:04:18;101047.69;;;15.75;100.00
63970;BME280;50156;37.772;-122.432;2022-08-23T07:06:47;101045.58;;;15.71;100.00
63970;BME280;50156;37.772;-122.432;2022-08-23T07:09:16;101044.62;;;15.72;100.00
63970;BME280;50156;37.772;-122.432;2022-08-23T07:11:45;101043.83;;;15.72;100.00
63970;BME280;50156;37.772;-122.432;2022-08-23T07:14:16;101044.97;;;15.61;100.00
63970;BME280;50156;37.772;-122.432;2022-08-23T07:16:47;101043.51;;;15.64;100.00
63970;BME280;50156;37.772;-122.432;2022-08-23T07:19:18;101043.81;;;15.62;100.00
63970;BME280;50156;37.772;-122.432;2022-08-23T07:21:47;101040.51;;;15.68;100.00
63970;BME280;50156;37.772;-122.432;2022-08-23T07:24:17;101037.18;;;15.68;100.00
63970;BME280;50156;37.772;-122.432;2022-08-23T07:26:47;101039.74;;;15.72;100.00
63970;BME280;50156;37.772;-122.432;2022-08-23T07:29:16;101035.99;;;15.63;100.00
63970;BME280;50156;37.772;-122.432;2022-08-23T07:31:47;101031.65;;;15.63;100.00
63970;BME280;50156;37.772;-122.432;2022-08-23T07:34:16;101028.31;;;15.60;100.00
63970;BME280;50156;37.772;-122.432;2022-08-23T07:36:47;101030.85;;;15.63;100.00
63970;BME280;50156;37.772;-122.432;2022-08-23T07:39:17;101031.20;;;15.72;100.00
63970;BME280;50156;37.772;-122.432;2022-08-23T07:41:46;101029.16;;;15.65;100.00
63970;BME280;50156;37.772;-122.432;2022-08-23T07:44:15;101033.82;;;15.67;100.00
63970;BME280;50156;37.772;-122.432;2022-08-23T07:46:45;101036.70;;;15.70;100.00
63970;BME280;50156;37.772;-122.432;2022-08-23T07:49:14;101033.38;;;15.67;100.00
63970;BME280;50156;37.772;-122.432;2022-08-23T07:51:49;101035.21;;;15.73;100.00
63970;BME280;50156;37.772;-122.432;2022-08-23T07:54:19;101030.46;;;15.46;100.00
63970;BME280;50156;37.772;-122.432;2022-08-23T07:56:48;101029.20;;;15.33;100.00
63970;BME280;50156;37.772;-122.432;2022-08-23T07:59:16;101031.98;;;15.44;100.00
63970;BME280;50156;37.772;-122.432;2022-08-23T08:01:44;101034.19;;;15.37;100.00
63970;BME280;50156;37.772;-122.432;2022-08-23T08:04:12;101036.71;;;15.33;100.00
63970;BME280;50156;37.772;-122.432;2022-08-23T08:06:45;101033.50;;;15.33;100.00
63970;BME280;50156;37.772;-122.432;2022-08-23T08:09:15;101033.82;;;15.35;100.00
63970;BME280;50156;37.772;-122.432;2022-08-23T08:11:46;101035.99;;;15.45;100.00
63970;BME280;50156;37.772;-122.432;2022-08-23T08:14:16;101035.59;;;15.40;100.00
63970;BME280;50156;37.772;-122.432;2022-08-23T08:16:46;101029.23;;;15.40;100.00
63970;BME280;50156;37.772;-122.432;2022-08-23T08:19:16;101029.25;;;15.33;100.00
63970;BME280;50156;37.772;-122.432;2022-08-23T08:21:45;101030.23;;;15.36;100.00
63970;BME280;50156;37.772;-122.432;2022-08-23T08:24:15;101030.78;;;15.41;100.00
63970;BME280;50156;37.772;-122.432;2022-08-23T08:26:45;101027.78;;;15.33;100.00
63970;BME280;50156;37.772;-122.432;2022-08-23T08:29:14;101030.39;;;15.36;100.00
63970;BME280;50156;37.772;-122.432;2022-08-23T08:31:44;101028.86;;;15.38;100.00
63970;BME280;50156;37.772;-122.432;2022-08-23T08:34:13;101031.76;;;15.40;100.00
63970;BME280;50156;37.772;-122.432;2022-08-23T08:36:44;101031.52;;;15.44;100.00
63970;BME280;50156;37.772;-122.432;2022-08-23T08:39:15;101025.82;;;15.36;100.00
63970;BME280;50156;37.772;-122.432;2022-08-23T08:41:56;101021.75;;;15.35;100.00
63970;BME280;50156;37.772;-122.432;2022-08-23T08:44:36;101018.90;;;15.37;100.00
63970;BME280;50156;37.772;-122.432;2022-08-23T08:47:10;101020.29;;;15.35;100.00
63970;BME280;50156;37.772;-122.432;2022-08-23T08:49:46;101019.68;;;15.31;100.00
63970;BME280;50156;37.772;-122.432;2022-08-23T08:52:19;101017.07;;;15.31;100.00
63970;BME280;50156;37.772;-122.432;2022-08-23T08:54:54;101011.86;;;15.25;100.00
63970;BME280;50156;37.772;-122.432;2022-08-23T08:57:24;101007.65;;;15.20;100.00
63970;BME280;50156;37.772;-122.432;2022-08-23T08:59:58;101002.96;;;15.14;100.00
63970;BME280;50156;37.772;-122.432;2022-08-23T09:02:31;101006.36;;;15.12;100.00
63970;BME280;50156;37.772;-122.432;2022-08-23T09:05:03;101011.49;;;15.13;100.00
63970;BME280;50156;37.772;-122.432;2022-08-23T09:07:41;101007.04;;;15.10;100.00
63970;BME280;50156;37.772;-122.432;2022-08-23T09:10:26;101009.40;;;14.95;100.00
63970;BME280;50156;37.772;-122.432;2022-08-23T09:13:06;101013.14;;;15.06;100.00
63970;BME280;50156;37.772;-122.432;2022-08-23T09:15:45;101015.69;;;14.95;100.00
63970;BME280;50156;37.772;-122.432;2022-08-23T09:18:19;101015.30;;;14.97;100.00
63970;BME280;50156;37.772;-122.432;2022-08-23T09:20:51;101015.93;;;15.02;100.00
63970;BME280;50156;37.772;-122.432;2022-08-23T09:23:23;101018.46;;;14.94;100.00
63970;BME280;50156;37.772;-122.432;2022-08-23T09:25:56;101017.55;;;15.06;100.00
63970;BME280;50156;37.772;-122.432;2022-08-23T09:28:28;101019.49;;;15.07;100.00
63970;BME280;50156;37.772;-122.432;2022-08-23T09:30:59;101022.09;;;14.76;100.00
63970;BME280;50156;37.772;-122.432;2022-08-23T09:33:40;101007.84;;;14.77;100.00
63970;BME280;50156;37.772;-122.432;2022-08-23T09:36:17;101008.66;;;14.79;100.00
63970;BME280;50156;37.772;-122.432;2022-08-23T09:38:53;101008.59;;;14.75;100.00
63970;BME280;50156;37.772;-122.432;2022-08-23T09:41:25;101005.45;;;14.65;100.00
63970;BME280;50156;37.772;-122.432;2022-08-23T09:43:54;101006.56;;;14.65;100.00
63970;BME280;50156;37.772;-122.432;2022-08-23T09:46:26;101010.27;;;14.48;100.00
63970;BME280;50156;37.772;-122.432;2022-08-23T09:48:55;101009.59;;;14.44;100.00
63970;BME280;50156;37.772;-122.432;2022-08-23T09:51:29;101011.75;;;14.42;100.00
63970;BME280;50156;37.772;-122.432;2022-08-23T09:54:09;101012.28;;;14.46;100.00
63970;BME280;50156;37.772;-122.432;2022-08-23T09:56:41;101008.14;;;14.36;100.00
63970;BME280;50156;37.772;-122.432;2022-08-23T09:59:44;101007.37;;;14.35;100.00
63970;BME280;50156;37.772;-122.432;2022-08-23T10:02:22;101008.04;;;14.36;100.00
63970;BME280;50156;37.772;-122.432;2022-08-23T10:04:58;101010.76;;;14.44;100.00
63970;BME280;50156;37.772;-122.432;2022-08-23T10:07:33;101006.70;;;14.49;100.00
63970;BME280;50156;37.772;-122.432;2022-08-23T10:10:19;101009.90;;;14.44;100.00
63970;BME280;50156;37.772;-122.432;2022-08-23T10:12:50;101009.49;;;14.54;100.00
63970;BME280;50156;37.772;-122.432;2022-08-23T10:15:21;101006.10;;;14.63;100.00
63970;BME280;50156;37.772;-122.432;2022-08-23T10:17:55;100997.45;;;14.56;100.00
63970;BME280;50156;37.772;-122.432;2022-08-23T10:20:34;100993.43;;;14.56;100.00
63970;BME280;50156;37.772;-122.432;2022-08-23T10:23:16;100994.90;;;14.48;100.00
63970;BME280;50156;37.772;-122.432;2022-08-23T10:25:53;100990.21;;;14.52;100.00
63970;BME280;50156;37.772;-122.432;2022-08-23T10:28:33;100987.75;;;14.51;100.00
63970;BME280;50156;37.772;-122.432;2022-08-23T10:31:09;100984.13;;;14.64;100.00
63970;BME280;50156;37.772;-122.432;2022-08-23T10:33:45;100983.67;;;14.56;100.00
63970;BME280;50156;37.772;-122.432;2022-08-23T10:36:21;100978.77;;;14.50;100.00
63970;BME280;50156;37.772;-122.432;2022-08-23T10:38:56;100979.40;;;14.56;100.00
63970;BME280;50156;37.772;-122.432;2022-08-23T10:41:41;100973.49;;;14.29;100.00
63970;BME280;50156;37.772;-122.432;2022-08-23T10:44:23;100971.76;;;14.21;100.00
63970;BME280;50156;37.772;-122.432;2022-08-23T10:47:01;100971.32;;;14.28;100.00
63970;BME280;50156;37.772;-122.432;2022-08-23T10:49:34;100967.01;;;14.32;100.00
63970;BME280;50156;37.772;-122.432;2022-08-23T10:52:05;100966.85;;;14.32;100.00
63970;BME280;50156;37.772;-122.432;2022-08-23T10:54:38;100967.56;;;14.35;100.00
63970;BME280;50156;37.772;-122.432;2022-08-23T10:57:09;100964.07;;;14.36;100.00
63970;BME280;50156;37.772;-122.432;2022-08-23T10:59:40;100965.19;;;14.34;100.00
63970;BME280;50156;37.772;-122.432;2022-08-23T11:02:20;100960.79;;;14.32;100.00
63970;BME280;50156;37.772;-122.432;2022-08-23T11:05:01;100962.44;;;14.26;100.00
63970;BME280;50156;37.772;-122.432;2022-08-23T11:07:33;100961.26;;;14.32;100.00
63970;BME280;50156;37.772;-122.432;2022-08-23T11:10:15;100961.83;;;14.33;100.00
63970;BME280;50156;37.772;-122.432;2022-08-23T11:12:54;100966.34;;;14.40;100.00
63970;BME280;50156;37.772;-122.432;2022-08-23T11:15:38;100967.26;;;14.46;100.00
63970;BME280;50156;37.772;-122.432;2022-08-23T11:18:10;100969.99;;;14.52;100.00
63970;BME280;50156;37.772;-122.432;2022-08-23T11:20:59;100967.06;;;14.55;100.00
63970;BME280;50156;37.772;-122.432;2022-08-23T11:23:46;100966.10;;;14.59;100.00
63970;BME280;50156;37.772;-122.432;2022-08-23T11:27:03;100962.97;;;14.54;100.00
63970;BME280;50156;37.772;-122.432;2022-08-23T11:29:36;100964.98;;;14.56;100.00
63970;BME280;50156;37.772;-122.432;2022-08-23T11:32:20;100964.75;;;14.54;100.00
63970;BME280;50156;37.772;-122.432;2022-08-23T11:34:57;100967.36;;;14.49;100.00
63970;BME280;50156;37.772;-122.432;2022-08-23T11:37:48;100964.22;;;14.50;100.00
63970;BME280;50156;37.772;-122.432;2022-08-23T11:40:39;100959.46;;;14.51;100.00
63970;BME280;50156;37.772;-122.432;2022-08-23T11:43:24;100959.18;;;14.59;100.00
63970;BME280;50156;37.772;-122.432;2022-08-23T11:45:53;100959.42;;;14.67;100.00
63970;BME280;50156;37.772;-122.432;2022-08-23T11:48:44;100953.35;;;14.74;100.00
63970;BME280;50156;37.772;-122.432;2022-08-23T11:51:24;100948.57;;;14.80;100.00
63970;BME280;50156;37.772;-122.432;2022-08-23T11:54:20;100943.71;;;14.78;100.00
63970;BME280;50156;37.772;-122.432;2022-08-23T11:57:02;100938.14;;;14.66;100.00
63970;BME280;50156;37.772;-122.432;2022-08-23T11:59:49;100936.09;;;14.65;100.00
63970;BME280;50156;37.772;-122.432;2022-08-23T12:02:39;100934.90;;;14.65;100.00
63970;BME280;50156;37.772;-122.432;2022-08-23T12:05:23;100935.64;;;14.64;100.00
63970;BME280;50156;37.772;-122.432;2022-08-23T12:08:24;100931.36;;;14.72;100.00
63970;BME280;50156;37.772;-122.432;2022-08-23T12:11:06;100928.05;;;14.73;100.00
63970;BME280;50156;37.772;-122.432;2022-08-23T12:13:58;100928.37;;;14.72;100.00
63970;BME280;50156;37.772;-122.432;2022-08-23T12:16:32;100925.35;;;14.79;100.00
63970;BME280;50156;37.772;-122.432;2022-08-23T12:19:06;100920.84;;;14.74;100.00
63970;BME280;50156;37.772;-122.432;2022-08-23T12:21:44;100919.38;;;14.68;100.00
63970;BME280;50156;37.772;-122.432;2022-08-23T12:24:20;100918.32;;;14.73;100.00
63970;BME280;50156;37.772;-122.432;2022-08-23T12:27:07;100921.58;;;14.73;100.00
63970;BME280;50156;37.772;-122.432;2022-08-23T12:29:45;100926.38;;;14.81;100.00
63970;BME280;50156;37.772;-122.432;2022-08-23T12:32:20;100927.03;;;14.84;100.00
63970;BME280;50156;37.772;-122.432;2022-08-23T12:35:05;100923.46;;;14.98;100.00
63970;BME280;50156;37.772;-122.432;2022-08-23T12:37:44;100921.00;;;14.86;100.00